createdAt,value
2022-10-14T00:00:06.214Z,100.00
2022-10-14T00:02:39.058Z,100.00
2022-10-14T00:05:07.829Z,100.00
2022-10-14T00:07:36.637Z,100.00
2022-10-14T00:10:05.133Z,100.00
2022-10-14T00:12:33.078Z,100.00
2022-10-14T00:15:00.647Z,100.00
2022-10-14T00:17:28.077Z,100.00
2022-10-14T00:19:55.468Z,100.00
2022-10-14T00:22:22.879Z,100.00
2022-10-14T00:24:51.611Z,100.00
2022-10-14T00:27:19.315Z,100.00
2022-10-14T00:29:47.199Z,100.00
2022-10-14T00:32:14.672Z,100.00
2022-10-14T00:34:42.255Z,100.00
2022-10-14T00:37:09.817Z,100.00
2022-10-14T00:39:37.221Z,100.00
2022-10-14T00:42:06.118Z,100.00
2022-10-14T00:45:01.691Z,100.00
2022-10-14T00:47:29.555Z,100.00
2022-10-14T00:49:57.929Z,100.00
2022-10-14T00:52:25.410Z,100.00
2022-10-14T00:54:56.117Z,100.00
2022-10-14T00:57:26.131Z,100.00
2022-10-14T00:59:55.776Z,100.00
2022-10-14T01:02:23.323Z,100.00
2022-10-14T01:04:51.037Z,100.00
2022-10-14T01:07:24.461Z,100.00
2022-10-14T01:09:58.166Z,100.00
2022-10-14T01:12:34.307Z,100.00
2022-10-14T01:15:08.000Z,100.00
2022-10-14T01:17:42.007Z,100.00
2022-10-14T01:20:32.010Z,100.00
2022-10-14T01:23:09.057Z,100.00
2022-10-14T01:25:45.994Z,100.00
2022-10-14T01:28:24.428Z,100.00
2022-10-14T01:30:56.471Z,100.00
2022-10-14T01:33:26.377Z,100.00
2022-10-14T01:36:02.319Z,100.00
2022-10-14T01:38:32.752Z,100.00
2022-10-14T01:41:06.941Z,100.00
2022-10-14T01:43:36.019Z,100.00
2022-10-14T01:46:07.306Z,100.00
2022-10-14T01:48:37.189Z,100.00
2022-10-14T01:51:07.192Z,100.00
2022-10-14T01:53:38.038Z,100.00
2022-10-14T01:56:07.196Z,100.00
2022-10-14T01:58:35.389Z,100.00
2022-10-14T02:01:05.071Z,100.00
2022-10-14T02:03:40.446Z,100.00
2022-10-14T02:06:10.596Z,100.00
2022-10-14T02:08:49.326Z,100.00
2022-10-14T02:11:18.910Z,100.00
2022-10-14T02:14:05.001Z,100.00
2022-10-14T02:16:38.993Z,100.00
2022-10-14T02:19:14.340Z,100.00
2022-10-14T02:21:45.003Z,100.00
2022-10-14T02:24:15.865Z,100.00
2022-10-14T02:26:43.941Z,100.00
2022-10-14T02:29:12.381Z,100.00
2022-10-14T02:31:42.843Z,100.00
2022-10-14T02:34:13.922Z,100.00
2022-10-14T02:36:42.632Z,100.00
2022-10-14T02:39:13.073Z,100.00
2022-10-14T02:41:40.613Z,100.00
2022-10-14T02:44:08.866Z,100.00
2022-10-14T02:46:36.369Z,100.00
2022-10-14T02:49:05.117Z,100.00
2022-10-14T02:51:32.545Z,100.00
2022-10-14T02:54:01.718Z,100.00
2022-10-14T02:56:29.634Z,100.00
2022-10-14T02:59:00.612Z,100.00
2022-10-14T03:01:28.344Z,100.00
2022-10-14T03:03:55.916Z,100.00
2022-10-14T03:06:26.272Z,100.00
2022-10-14T03:08:53.693Z,100.00
2022-10-14T03:11:22.541Z,100.00
2022-10-14T03:13:51.739Z,100.00
2022-10-14T03:16:21.123Z,100.00
2022-10-14T03:18:49.089Z,100.00
2022-10-14T03:21:29.771Z,100.00
2022-10-14T03:23:57.137Z,100.00
2022-10-14T03:26:32.473Z,100.00
2022-10-14T03:28:59.895Z,100.00
2022-10-14T03:31:40.407Z,100.00
2022-10-14T03:34:26.405Z,100.00
2022-10-14T03:37:05.365Z,100.00
2022-10-14T03:39:36.276Z,100.00
2022-10-14T03:42:05.982Z,100.00
2022-10-14T03:44:41.299Z,100.00
2022-10-14T03:47:16.417Z,100.00
2022-10-14T03:49:45.271Z,100.00
2022-10-14T03:52:21.719Z,100.00
2022-10-14T03:55:00.158Z,100.00
2022-10-14T03:57:28.334Z,100.00
2022-10-14T03:59:57.934Z,100.00
2022-10-14T04:02:41.828Z,100.00
2022-10-14T04:05:33.971Z,100.00
2022-10-14T04:08:07.618Z,100.00
2022-10-14T04:10:36.037Z,100.00
2022-10-14T04:13:03.754Z,100.00
2022-10-14T04:15:36.421Z,100.00
2022-10-14T04:18:15.521Z,100.00
2022-10-14T04:20:44.335Z,100.00
2022-10-14T04:23:13.677Z,100.00
2022-10-14T04:25:42.849Z,100.00
2022-10-14T04:28:12.717Z,100.00
2022-10-14T04:30:47.309Z,100.00
2022-10-14T04:33:20.917Z,100.00
2022-10-14T04:35:49.841Z,100.00
2022-10-14T04:38:26.089Z,100.00
2022-10-14T04:40:58.893Z,100.00
2022-10-14T04:43:27.777Z,100.00
2022-10-14T04:45:58.306Z,100.00
2022-10-14T04:48:27.451Z,100.00
2022-10-14T04:50:55.992Z,100.00
2022-10-14T04:53:35.142Z,100.00
2022-10-14T04:56:20.424Z,100.00
2022-10-14T04:58:58.810Z,100.00
2022-10-14T05:01:41.840Z,100.00
2022-10-14T05:04:09.249Z,100.00
2022-10-14T05:06:40.544Z,100.00
2022-10-14T05:09:11.681Z,100.00
2022-10-14T05:11:39.429Z,100.00
2022-10-14T05:14:06.850Z,100.00
2022-10-14T05:16:36.445Z,100.00
2022-10-14T05:19:04.339Z,100.00
2022-10-14T05:21:33.715Z,100.00
2022-10-14T05:24:07.678Z,100.00
2022-10-14T05:26:39.022Z,100.00
2022-10-14T05:29:11.348Z,100.00
2022-10-14T05:31:39.988Z,100.00
2022-10-14T05:34:20.719Z,100.00
2022-10-14T05:36:48.233Z,100.00
2022-10-14T05:39:16.049Z,100.00
2022-10-14T05:41:45.225Z,100.00
2022-10-14T05:44:14.650Z,100.00
2022-10-14T05:46:43.059Z,100.00
2022-10-14T05:49:11.268Z,100.00
2022-10-14T05:51:39.257Z,100.00
2022-10-14T05:54:14.868Z,100.00
2022-10-14T05:56:45.187Z,100.00
2022-10-14T05:59:12.808Z,100.00
2022-10-14T06:01:40.637Z,100.00
2022-10-14T06:04:08.098Z,100.00
2022-10-14T06:06:35.464Z,100.00
2022-10-14T06:09:05.484Z,100.00
2022-10-14T06:11:35.022Z,100.00
2022-10-14T06:14:03.705Z,100.00
2022-10-14T06:16:31.245Z,100.00
2022-10-14T06:18:58.820Z,100.00
2022-10-14T06:21:27.397Z,100.00
2022-10-14T06:23:54.869Z,100.00
2022-10-14T06:26:22.183Z,100.00
2022-10-14T06:28:49.554Z,100.00
2022-10-14T06:31:18.292Z,100.00
2022-10-14T06:33:45.806Z,100.00
2022-10-14T06:36:13.148Z,100.00
2022-10-14T06:38:41.047Z,100.00
2022-10-14T06:41:08.488Z,100.00
2022-10-14T06:43:37.790Z,100.00
2022-10-14T06:46:05.512Z,100.00
2022-10-14T06:48:34.197Z,100.00
2022-10-14T06:51:01.801Z,100.00
2022-10-14T06:53:29.363Z,100.00
2022-10-14T06:56:01.314Z,100.00
2022-10-14T06:58:28.747Z,100.00
2022-10-14T07:03:28.965Z,100.00
2022-10-14T07:05:57.829Z,100.00
2022-10-14T07:08:25.148Z,100.00
2022-10-14T07:10:52.516Z,100.00
2022-10-14T07:13:20.305Z,100.00
2022-10-14T07:15:48.661Z,100.00
2022-10-14T07:18:16.159Z,100.00
2022-10-14T07:20:43.761Z,100.00
2022-10-14T07:23:12.549Z,100.00
2022-10-14T07:25:39.967Z,100.00
2022-10-14T07:28:07.616Z,100.00
2022-10-14T07:30:35.142Z,100.00
2022-10-14T07:33:02.730Z,100.00
2022-10-14T07:35:32.774Z,100.00
2022-10-14T07:38:00.448Z,100.00
2022-10-14T07:40:29.181Z,100.00
2022-10-14T07:42:57.242Z,100.00
2022-10-14T07:45:24.676Z,100.00
2022-10-14T07:47:52.284Z,100.00
2022-10-14T07:50:20.604Z,100.00
2022-10-14T07:52:47.972Z,100.00
2022-10-14T07:55:15.381Z,100.00
2022-10-14T07:57:44.038Z,100.00
2022-10-14T08:00:12.333Z,100.00
2022-10-14T08:02:39.762Z,100.00
2022-10-14T08:05:32.823Z,100.00
2022-10-14T08:07:54.858Z,100.00
2022-10-14T08:10:22.303Z,100.00
2022-10-14T08:12:51.810Z,100.00
2022-10-14T08:15:19.180Z,100.00
2022-10-14T08:17:46.558Z,100.00
2022-10-14T08:20:13.949Z,100.00
2022-10-14T08:22:41.386Z,100.00
2022-10-14T08:25:09.227Z,100.00
2022-10-14T08:27:36.581Z,100.00
2022-10-14T08:30:10.223Z,100.00
2022-10-14T08:32:38.577Z,100.00
2022-10-14T08:35:06.951Z,100.00
2022-10-14T08:37:34.409Z,100.00
2022-10-14T08:40:01.753Z,100.00
2022-10-14T08:42:36.086Z,100.00
2022-10-14T08:52:55.717Z,100.00
2022-10-14T08:55:28.115Z,100.00
2022-10-14T08:57:58.899Z,100.00
2022-10-14T09:00:28.528Z,100.00
2022-10-14T09:02:56.151Z,100.00
2022-10-14T09:05:24.986Z,99.59
2022-10-14T09:07:55.617Z,96.22
2022-10-14T09:10:29.597Z,97.33
2022-10-14T09:12:59.976Z,95.82
2022-10-14T09:15:33.966Z,95.23
2022-10-14T09:18:05.833Z,95.29
2022-10-14T09:20:33.568Z,95.74
2022-10-14T09:23:11.265Z,97.04
2022-10-14T09:25:40.168Z,97.59
2022-10-14T09:28:07.513Z,95.49
2022-10-14T09:30:37.935Z,96.21
2022-10-14T09:33:06.331Z,96.69
2022-10-14T09:35:36.012Z,96.06
2022-10-14T09:38:03.391Z,96.35
2022-10-14T09:40:32.313Z,96.47
2022-10-14T09:43:02.930Z,96.42
2022-10-14T09:45:31.160Z,95.55
2022-10-14T09:48:03.938Z,97.29
2022-10-14T09:50:34.279Z,96.40
2022-10-14T09:53:03.448Z,95.42
2022-10-14T09:55:31.328Z,93.98
2022-10-14T09:58:04.325Z,94.24
2022-10-14T10:00:33.433Z,96.71
2022-10-14T10:03:02.189Z,93.81
2022-10-14T10:05:31.358Z,94.09
2022-10-14T10:08:05.658Z,92.66
2022-10-14T10:10:35.058Z,89.98
2022-10-14T10:13:03.595Z,87.49
2022-10-14T10:15:31.072Z,89.74
2022-10-14T10:17:58.438Z,89.35
2022-10-14T10:20:33.141Z,88.93
2022-10-14T10:23:25.115Z,89.36
2022-10-14T10:25:52.732Z,86.78
2022-10-14T10:28:31.572Z,87.82
2022-10-14T10:31:06.086Z,87.76
2022-10-14T10:33:38.876Z,87.66
2022-10-14T10:38:59.710Z,86.61
2022-10-14T10:41:37.842Z,87.45
2022-10-14T10:44:20.117Z,87.14
2022-10-14T10:47:03.983Z,88.34
2022-10-14T10:49:43.774Z,85.01
2022-10-14T10:52:21.305Z,84.25
2022-10-14T10:54:54.422Z,81.08
2022-10-14T10:57:32.927Z,82.87
2022-10-14T11:00:02.680Z,83.38
2022-10-14T11:02:55.909Z,80.48
2022-10-14T11:05:30.778Z,79.41
2022-10-14T11:08:28.586Z,79.77
2022-10-14T11:11:30.389Z,80.71
2022-10-14T11:14:04.884Z,80.23
2022-10-14T11:16:36.717Z,78.23
2022-10-14T11:19:11.021Z,82.37
2022-10-14T11:21:45.826Z,80.25
2022-10-14T11:24:24.325Z,79.13
2022-10-14T11:27:00.794Z,79.43
2022-10-14T11:29:42.869Z,78.84
2022-10-14T11:32:15.351Z,79.28
2022-10-14T11:34:44.436Z,77.07
2022-10-14T11:37:21.142Z,77.80
2022-10-14T11:39:51.312Z,77.73
2022-10-14T11:42:27.788Z,76.19
2022-10-14T11:45:07.708Z,75.24
2022-10-14T11:47:40.413Z,75.72
2022-10-14T11:50:16.251Z,74.78
2022-10-14T11:52:46.356Z,75.49
2022-10-14T11:55:17.541Z,73.73
2022-10-14T11:57:46.388Z,73.43
2022-10-14T12:00:33.466Z,72.46
2022-10-14T12:03:04.222Z,73.12
2022-10-14T12:05:37.900Z,69.60
2022-10-14T12:08:17.043Z,73.66
2022-10-14T12:10:48.731Z,70.56
2022-10-14T12:13:18.773Z,71.85
2022-10-14T12:15:50.369Z,73.33
2022-10-14T12:36:47.025Z,75.23
2022-10-14T12:39:31.552Z,74.34
2022-10-14T12:42:00.757Z,75.16
2022-10-14T12:44:34.842Z,74.63
2022-10-14T12:47:03.735Z,76.26
2022-10-14T12:49:32.854Z,75.95
2022-10-14T12:52:03.088Z,73.06
2022-10-14T12:54:31.145Z,76.35
2022-10-14T12:57:00.820Z,77.56
2022-10-14T12:59:30.500Z,78.82
2022-10-14T13:01:59.425Z,79.77
2022-10-14T13:04:27.603Z,79.13
2022-10-14T13:07:46.647Z,78.75
2022-10-14T13:10:32.703Z,79.43
2022-10-14T15:01:20.714Z,92.52
2022-10-14T15:04:12.980Z,90.58
2022-10-14T15:06:50.979Z,88.30
2022-10-14T15:09:23.104Z,89.55
2022-10-14T15:11:52.022Z,89.69
2022-10-14T15:14:30.623Z,88.13
2022-10-14T15:17:00.762Z,87.10
2022-10-14T15:19:35.510Z,87.14
2022-10-14T15:22:36.203Z,87.74
2022-10-14T15:25:08.718Z,88.59
2022-10-14T15:27:45.760Z,90.54
2022-10-14T15:30:36.065Z,92.03
2022-10-14T15:33:14.540Z,92.66
2022-10-14T15:35:42.553Z,93.61
2022-10-14T15:38:16.136Z,94.80
2022-10-14T15:40:44.760Z,98.19
2022-10-14T15:43:17.398Z,100.00
2022-10-14T15:46:08.634Z,100.00
2022-10-14T15:48:37.643Z,100.00
2022-10-14T15:51:05.352Z,100.00
2022-10-14T15:53:32.793Z,100.00
2022-10-14T15:56:01.060Z,100.00
2022-10-14T15:58:28.405Z,100.00
2022-10-14T16:00:55.929Z,100.00
2022-10-14T16:03:23.282Z,100.00
2022-10-14T16:05:52.169Z,100.00
2022-10-14T16:08:19.633Z,100.00
2022-10-14T16:10:48.407Z,100.00
2022-10-14T16:13:16.315Z,100.00
2022-10-14T16:15:47.225Z,100.00
2022-10-14T16:18:15.948Z,100.00
2022-10-14T16:20:43.337Z,100.00
2022-10-14T16:23:15.628Z,100.00
2022-10-14T16:25:45.247Z,100.00
2022-10-14T16:28:14.597Z,100.00
2022-10-14T16:30:49.436Z,100.00
2022-10-14T16:33:17.518Z,100.00
2022-10-14T16:35:46.486Z,100.00
2022-10-14T16:38:15.266Z,100.00
2022-10-14T16:40:45.746Z,100.00
2022-10-14T16:43:13.681Z,100.00
2022-10-14T16:45:41.254Z,100.00
2022-10-14T16:48:09.324Z,100.00
2022-10-14T16:50:36.664Z,100.00
2022-10-14T16:53:21.501Z,100.00
2022-10-14T16:55:51.837Z,100.00
2022-10-14T16:58:19.186Z,100.00
2022-10-14T17:00:46.517Z,100.00
2022-10-14T17:03:15.501Z,100.00
2022-10-14T17:05:44.762Z,100.00
2022-10-14T17:08:14.559Z,100.00
2022-10-14T17:10:42.789Z,100.00
2022-10-14T17:13:11.524Z,100.00
2022-10-14T17:15:38.883Z,100.00
2022-10-14T17:18:08.881Z,100.00
2022-10-14T17:20:38.301Z,100.00
2022-10-14T17:23:09.470Z,100.00
2022-10-14T17:25:40.804Z,100.00
2022-10-14T17:28:08.346Z,100.00
2022-10-14T17:30:40.007Z,100.00
2022-10-14T17:33:07.545Z,100.00
2022-10-14T17:35:37.237Z,100.00
2022-10-14T17:38:04.560Z,100.00
2022-10-14T17:40:33.664Z,100.00
2022-10-14T17:43:01.182Z,100.00
2022-10-14T17:45:30.432Z,100.00
2022-10-14T17:47:59.081Z,100.00
2022-10-14T17:50:27.885Z,100.00
2022-10-14T17:52:58.656Z,100.00
2022-10-14T17:55:26.122Z,100.00
2022-10-14T17:57:53.570Z,100.00
2022-10-14T18:00:21.227Z,100.00
2022-10-14T18:02:48.580Z,100.00
2022-10-14T18:05:17.673Z,100.00
2022-10-14T18:07:44.989Z,100.00
2022-10-14T18:10:14.235Z,100.00
2022-10-14T18:12:41.785Z,100.00
2022-10-14T18:15:10.009Z,100.00
2022-10-14T18:17:37.406Z,100.00
2022-10-14T18:20:06.391Z,100.00
2022-10-14T18:22:35.156Z,100.00
2022-10-14T18:25:03.122Z,100.00
2022-10-14T18:27:31.273Z,100.00
2022-10-14T18:29:58.669Z,100.00
2022-10-14T18:32:26.351Z,100.00
2022-10-14T18:34:53.828Z,100.00
2022-10-14T18:37:21.194Z,100.00
2022-10-14T18:39:49.860Z,100.00
2022-10-14T18:42:20.091Z,100.00
2022-10-14T18:44:48.434Z,100.00
2022-10-14T18:47:15.838Z,100.00
2022-10-14T18:49:43.219Z,100.00
2022-10-14T18:52:10.605Z,100.00
2022-10-14T18:54:38.041Z,100.00
2022-10-14T18:57:06.829Z,100.00
2022-10-14T18:59:35.632Z,100.00
2022-10-14T19:02:09.056Z,100.00
2022-10-14T19:04:36.454Z,100.00
2022-10-14T19:07:04.139Z,100.00
2022-10-14T19:09:33.006Z,100.00
2022-10-14T19:12:00.400Z,100.00
2022-10-14T19:14:31.652Z,100.00
2022-10-14T19:16:59.088Z,100.00
2022-10-14T19:19:26.433Z,100.00
2022-10-14T19:21:56.145Z,100.00
2022-10-14T19:24:23.497Z,100.00
2022-10-14T19:26:51.457Z,100.00
2022-10-14T19:29:18.869Z,100.00
2022-10-14T19:31:47.670Z,100.00
2022-10-14T19:34:16.272Z,100.00
2022-10-14T19:36:44.405Z,100.00
2022-10-14T19:39:13.241Z,100.00
2022-10-14T19:41:43.144Z,100.00
2022-10-14T19:44:11.813Z,100.00
2022-10-14T19:46:40.084Z,100.00
2022-10-14T19:49:13.558Z,100.00
2022-10-14T19:51:41.245Z,100.00
2022-10-14T19:54:09.129Z,100.00
2022-10-14T19:56:36.731Z,100.00
2022-10-14T19:59:04.226Z,100.00
2022-10-14T20:01:32.266Z,100.00
2022-10-14T20:04:01.250Z,100.00
2022-10-14T20:06:31.586Z,100.00
2022-10-14T20:08:59.198Z,100.00
2022-10-14T20:11:26.730Z,100.00
2022-10-14T20:13:57.115Z,100.00
2022-10-14T20:16:24.944Z,100.00
2022-10-14T20:18:52.402Z,100.00
2022-10-14T20:21:19.841Z,100.00
2022-10-14T20:23:48.604Z,100.00
2022-10-14T20:26:17.767Z,100.00
2022-10-14T20:28:45.238Z,100.00
2022-10-14T20:31:16.415Z,100.00
2022-10-14T20:33:44.233Z,100.00
2022-10-14T20:36:14.270Z,100.00
2022-10-14T20:38:42.276Z,100.00
2022-10-14T20:41:14.205Z,100.00
2022-10-14T20:43:42.477Z,100.00
2022-10-14T20:46:10.723Z,100.00
2022-10-14T20:48:38.317Z,100.00
2022-10-14T20:51:06.613Z,100.00
2022-10-14T20:53:36.079Z,100.00
2022-10-14T20:56:04.044Z,100.00
2022-10-14T20:58:32.837Z,100.00
2022-10-14T21:01:08.531Z,100.00
2022-10-14T21:03:36.094Z,100.00
2022-10-14T21:06:04.876Z,100.00
2022-10-14T21:08:32.688Z,100.00
2022-10-14T21:11:00.539Z,100.00
2022-10-14T21:13:28.345Z,100.00
2022-10-14T21:15:57.510Z,100.00
2022-10-14T21:18:25.405Z,100.00
2022-10-14T21:23:20.812Z,100.00
2022-10-14T21:25:55.349Z,100.00
2022-10-14T21:28:22.750Z,100.00
2022-10-14T21:30:50.984Z,100.00
2022-10-14T21:33:19.885Z,100.00
2022-10-14T21:35:47.441Z,100.00
2022-10-14T21:38:14.834Z,100.00
2022-10-14T21:40:42.393Z,100.00
2022-10-14T21:43:09.876Z,100.00
2022-10-14T21:45:37.371Z,100.00
2022-10-14T21:48:06.651Z,100.00
2022-10-14T21:50:35.460Z,100.00
2022-10-14T21:53:02.945Z,100.00
2022-10-14T21:55:30.377Z,100.00
2022-10-14T21:57:58.105Z,100.00
2022-10-14T22:00:25.559Z,100.00
2022-10-14T22:02:54.114Z,100.00
2022-10-14T22:05:22.379Z,100.00
2022-10-14T22:07:51.272Z,100.00
2022-10-14T22:10:38.814Z,100.00
2022-10-14T22:13:06.283Z,100.00
2022-10-14T22:15:33.835Z,100.00
2022-10-14T22:18:01.335Z,100.00
2022-10-14T22:20:29.030Z,100.00
2022-10-14T22:22:59.181Z,100.00
2022-10-14T22:25:26.541Z,100.00
2022-10-14T22:27:55.309Z,100.00
2022-10-14T22:30:22.644Z,100.00
2022-10-14T22:32:49.961Z,100.00
2022-10-14T22:35:17.348Z,100.00
2022-10-14T22:37:44.729Z,100.00
2022-10-14T22:40:13.709Z,100.00
2022-10-14T22:42:42.331Z,100.00
2022-10-14T22:45:11.269Z,100.00
2022-10-14T22:47:38.661Z,100.00
2022-10-14T22:50:06.738Z,100.00
2022-10-14T22:52:34.081Z,100.00
2022-10-14T22:55:01.465Z,100.00
2022-10-14T22:57:30.081Z,100.00
2022-10-14T22:59:57.532Z,100.00
2022-10-14T23:02:25.454Z,100.00
2022-10-14T23:04:53.085Z,100.00
2022-10-14T23:07:20.642Z,100.00
2022-10-14T23:09:48.463Z,100.00
2022-10-14T23:12:15.780Z,100.00
2022-10-14T23:14:44.729Z,100.00
2022-10-14T23:17:12.097Z,100.00
2022-10-14T23:19:39.466Z,100.00
2022-10-14T23:22:06.834Z,100.00
2022-10-14T23:24:34.189Z,100.00
2022-10-14T23:27:01.549Z,100.00
2022-10-14T23:29:28.872Z,100.00
2022-10-14T23:31:58.029Z,100.00
2022-10-14T23:34:25.349Z,100.00
2022-10-14T23:39:24.948Z,100.00
2022-10-14T23:41:55.258Z,100.00
2022-10-14T23:44:22.597Z,100.00
2022-10-14T23:46:50.770Z,100.00
2022-10-14T23:49:26.030Z,100.00
2022-10-14T23:51:54.252Z,100.00
2022-10-14T23:54:21.597Z,100.00
2022-10-14T23:56:48.945Z,100.00
2022-10-14T23:59:16.306Z,100.00
